Time;durP1;ratioP1;P1;durP2;ratioP2;P2;SDS_P1;SDS_P2;PMS_P1;PMS_P2;Temp;Humidity;BMP_temperature;BMP_pressure;BME280_temperature;BME280_humidity;BME280_pressure;Samples;Min_cycle;Max_cycle;Signal;HPM_P1;HPM_P2
2021/12/25 11:38:13;;;;;;;1.00;1.00;;;-6.80;99.90;;;;;;5090149;27;20604;-73
2021/12/25 11:40:48;;;;;;;1.00;1.00;;;-6.60;99.90;;;;;;5088961;28;20223;-72
2021/12/25 11:43:14;;;;;;;0.90;0.90;;;-6.70;99.90;;;;;;5070838;28;20218;-72
2021/12/25 11:45:42;;;;;;;1.00;1.00;;;-6.80;99.90;;;;;;5088889;28;20200;-74
2021/12/25 11:48:14;;;;;;;0.90;0.90;;;-6.80;99.90;;;;;;5070716;28;20199;-73
2021/12/25 11:50:47;;;;;;;0.90;0.90;;;-6.70;99.90;;;;;;5071662;28;20212;-73
2021/12/25 11:53:42;;;;;;;1.00;1.00;;;-6.70;99.90;;;;;;5071749;28;20200;-73
2021/12/25 11:58:53;;;;;;;1.00;1.00;;;-6.50;99.90;;;;;;5087896;28;20207;-73
2021/12/25 12:01:48;;;;;;;1.00;1.00;;;-6.40;99.90;;;;;;5071768;28;20224;-76
2021/12/25 12:04:25;;;;;;;1.10;1.10;;;-6.30;99.90;;;;;;5089175;28;20199;-74
2021/12/25 12:06:56;;;;;;;1.00;1.00;;;-6.40;99.90;;;;;;5071392;28;20651;-77
2021/12/25 12:09:27;;;;;;;0.90;0.90;;;-6.50;99.90;;;;;;5088546;28;20674;-78
2021/12/25 12:12:11;;;;;;;0.87;0.87;;;-6.50;99.90;;;;;;5070190;28;20290;-77
2021/12/25 12:14:37;;;;;;;1.00;1.00;;;-6.50;99.90;;;;;;5070585;28;20678;-76
2021/12/25 12:17:07;;;;;;;0.97;0.97;;;-6.50;99.90;;;;;;5070267;28;20204;-76
2021/12/25 12:19:37;;;;;;;0.93;0.93;;;-6.60;99.90;;;;;;5087081;28;20697;-76
2021/12/25 12:22:18;;;;;;;0.83;0.83;;;-6.50;99.90;;;;;;5087233;28;20203;-75
2021/12/25 12:25:15;;;;;;;1.00;1.00;;;-6.40;99.90;;;;;;5071365;28;20205;-77
2021/12/25 12:27:35;;;;;;;1.00;1.00;;;-6.40;99.90;;;;;;5086262;28;20204;-76
2021/12/25 12:30:06;;;;;;;0.90;0.90;;;-6.60;99.90;;;;;;5088307;28;20205;-75
2021/12/25 12:32:43;;;;;;;1.00;1.00;;;-6.50;99.90;;;;;;5088006;28;20572;-71
2021/12/25 12:35:38;;;;;;;1.00;1.00;;;-6.30;99.90;;;;;;5080987;28;20198;-74
2021/12/25 12:38:47;;;;;;;0.97;0.97;;;-6.30;99.90;;;;;;5087665;28;20220;-74
2021/12/25 12:41:32;;;;;;;1.10;1.10;;;-5.90;99.90;;;;;;5068580;28;20201;-74
2021/12/25 12:44:07;;;;;;;0.90;0.90;;;-5.60;99.90;;;;;;5086898;28;20577;-72
2021/12/25 12:46:48;;;;;;;0.90;0.90;;;-5.50;99.90;;;;;;5070414;28;20204;-73
2021/12/25 12:49:26;;;;;;;0.90;0.90;;;-5.60;99.90;;;;;;5075352;28;20262;-74
2021/12/25 12:52:17;;;;;;;0.83;0.83;;;-5.80;99.90;;;;;;5056334;28;20221;-72
2021/12/25 12:54:56;;;;;;;1.10;1.10;;;-5.80;99.90;;;;;;5073090;28;20212;-74
2021/12/25 12:57:32;;;;;;;1.00;1.00;;;-5.90;99.90;;;;;;5055805;28;20215;-75
2021/12/25 13:00:03;;;;;;;1.00;1.00;;;-6.00;99.90;;;;;;5073063;28;20231;-74
2021/12/25 13:02:31;;;;;;;1.00;1.00;;;-6.10;99.90;;;;;;5072727;28;20601;-74
2021/12/25 13:05:00;;;;;;;0.90;0.90;;;-6.00;99.90;;;;;;5057044;28;20201;-74
2021/12/25 13:07:29;;;;;;;0.90;0.90;;;-6.00;99.90;;;;;;5073912;28;20258;-75
2021/12/25 13:10:10;;;;;;;0.90;0.90;;;-6.10;99.90;;;;;;5074022;28;20204;-74
2021/12/25 13:12:43;;;;;;;1.00;1.00;;;-6.20;99.90;;;;;;5056468;28;20733;-73
2021/12/25 13:15:14;;;;;;;1.00;1.00;;;-6.40;99.90;;;;;;5072745;28;20209;-73
2021/12/25 13:17:51;;;;;;;0.90;0.90;;;-6.30;99.90;;;;;;5073441;28;20209;-74
2021/12/25 13:20:17;;;;;;;0.90;0.90;;;-6.20;99.90;;;;;;5056886;28;20254;-74
2021/12/25 13:22:54;;;;;;;1.03;1.03;;;-6.20;99.90;;;;;;5054433;28;20277;-74
2021/12/25 13:25:20;;;;;;;0.90;0.90;;;-6.00;99.90;;;;;;5073473;28;20230;-74
2021/12/25 13:27:54;;;;;;;1.00;1.00;;;-6.00;99.90;;;;;;5072506;28;20205;-76
2021/12/25 13:30:20;;;;;;;1.00;1.00;;;-5.80;99.90;;;;;;5056525;28;20319;-76
2021/12/25 13:32:45;;;;;;;0.90;0.90;;;-5.60;99.90;;;;;;5073432;28;20204;-75
2021/12/25 13:35:22;;;;;;;1.00;1.00;;;-5.70;99.90;;;;;;5055459;28;20583;-74
2021/12/25 13:37:56;;;;;;;1.20;1.20;;;-6.00;99.90;;;;;;5054571;28;20360;-75
2021/12/25 13:40:23;;;;;;;1.00;1.00;;;-6.10;99.90;;;;;;5073010;28;20667;-74
2021/12/25 13:42:48;;;;;;;0.90;0.90;;;-6.20;99.90;;;;;;5073259;28;20659;-75
2021/12/25 13:45:14;;;;;;;1.00;1.00;;;-6.40;99.90;;;;;;5055225;28;20291;-75
2021/12/25 13:47:40;;;;;;;0.83;0.83;;;-6.50;99.90;;;;;;5056193;28;20211;-75
2021/12/25 13:50:10;;;;;;;1.00;1.00;;;-6.40;99.90;;;;;;5054041;28;20295;-75
2021/12/25 13:52:44;;;;;;;0.80;0.80;;;-6.50;99.90;;;;;;5054881;28;20223;-74
2021/12/25 13:55:18;;;;;;;0.93;0.93;;;-6.60;99.90;;;;;;5071907;28;20211;-76
2021/12/25 13:57:52;;;;;;;0.90;0.90;;;-6.70;99.90;;;;;;5054822;28;20200;-74
2021/12/25 14:00:31;;;;;;;0.90;0.90;;;-6.80;99.90;;;;;;5070941;28;20201;-76
2021/12/25 14:03:01;;;;;;;1.00;1.00;;;-6.90;99.90;;;;;;5055757;28;20250;-76
2021/12/25 14:05:30;;;;;;;0.90;0.90;;;-7.00;99.90;;;;;;5072633;28;20694;-76
2021/12/25 14:07:56;;;;;;;1.00;1.00;;;-7.10;99.90;;;;;;5071478;28;20223;-74
2021/12/25 14:10:25;;;;;;;1.00;1.00;;;-7.20;99.90;;;;;;5071390;28;20736;-76
2021/12/25 14:12:57;;;;;;;1.00;1.00;;;-7.30;99.90;;;;;;5053793;28;20227;-75
2021/12/25 14:15:26;;;;;;;0.90;0.90;;;-7.20;99.90;;;;;;5071376;28;20280;-74
2021/12/25 14:17:53;;;;;;;0.80;0.80;;;-7.20;99.90;;;;;;5072524;28;20213;-76
2021/12/25 14:20:29;;;;;;;0.90;0.90;;;-6.90;99.90;;;;;;5054446;28;20778;-75
2021/12/25 14:23:04;;;;;;;0.90;0.90;;;-6.90;99.90;;;;;;5071416;28;20200;-75
2021/12/25 14:25:58;;;;;;;1.00;1.00;;;-6.80;99.90;;;;;;5055105;28;20666;-74
2021/12/25 14:28:31;;;;;;;1.00;1.00;;;-6.70;99.90;;;;;;5044717;28;20582;-76
2021/12/25 14:31:06;;;;;;;0.90;0.90;;;-6.60;99.90;;;;;;5072439;28;20193;-74
2021/12/25 14:33:40;;;;;;;0.97;0.97;;;-6.60;99.90;;;;;;5069295;28;20207;-74
2021/12/25 14:36:10;;;;;;;1.00;1.00;;;-6.50;99.90;;;;;;5059772;28;20733;-74
2021/12/25 14:38:42;;;;;;;1.00;1.00;;;-6.30;99.90;;;;;;5055076;28;20211;-75
2021/12/25 14:41:09;;;;;;;0.90;0.90;;;-6.10;99.90;;;;;;5072123;28;20554;-74
2021/12/25 14:43:35;;;;;;;0.90;0.90;;;-6.10;99.90;;;;;;5053408;28;20683;-75
2021/12/25 14:46:03;;;;;;;0.90;0.90;;;-6.20;99.90;;;;;;5072107;28;20276;-75
2021/12/25 14:48:42;;;;;;;0.87;0.87;;;-6.40;99.90;;;;;;5071955;28;20204;-75
2021/12/25 14:51:14;;;;;;;0.90;0.90;;;-6.30;99.90;;;;;;5071019;28;20256;-76
2021/12/25 14:53:47;;;;;;;0.80;0.80;;;-6.30;99.90;;;;;;5070693;28;20361;-74
2021/12/25 14:56:23;;;;;;;0.90;0.90;;;-6.30;99.90;;;;;;5071912;28;20208;-74
2021/12/25 14:58:51;;;;;;;0.90;0.90;;;-6.40;99.90;;;;;;5070671;28;20200;-75
2021/12/25 15:01:22;;;;;;;0.90;0.90;;;-6.40;99.90;;;;;;5070531;28;20220;-75
2021/12/25 15:04:12;;;;;;;1.00;1.00;;;-6.50;99.90;;;;;;5053683;28;20205;-76
2021/12/25 15:06:49;;;;;;;1.00;1.00;;;-6.70;99.90;;;;;;5054479;28;20204;-75
2021/12/25 15:09:24;;;;;;;1.00;1.00;;;-6.60;99.90;;;;;;5070667;28;20205;-75
2021/12/25 15:11:53;;;;;;;1.10;1.10;;;-6.80;99.90;;;;;;5071300;28;20286;-75
2021/12/25 15:14:28;;;;;;;0.90;0.90;;;-6.90;99.90;;;;;;5071479;28;20231;-76
2021/12/25 15:17:09;;;;;;;0.90;0.90;;;-7.00;99.90;;;;;;5070437;28;20212;-76
2021/12/25 15:19:41;;;;;;;0.90;0.90;;;-7.20;99.90;;;;;;5070444;28;20655;-76
2021/12/25 15:22:19;;;;;;;0.90;0.90;;;-7.30;99.90;;;;;;5053176;28;20284;-76
2021/12/25 15:24:56;;;;;;;0.90;0.90;;;-7.30;99.90;;;;;;5053483;28;20295;-76
2021/12/25 15:27:24;;;;;;;1.00;1.00;;;-7.40;99.90;;;;;;5053300;28;20204;-77
2021/12/25 15:29:51;;;;;;;1.00;1.00;;;-7.30;99.90;;;;;;5068444;28;20224;-75
2021/12/25 15:32:17;;;;;;;0.90;0.90;;;-7.40;99.90;;;;;;5071473;28;20581;-76
2021/12/25 15:34:52;;;;;;;1.00;1.00;;;-7.40;99.90;;;;;;5067188;28;20209;-76
2021/12/25 15:37:45;;;;;;;1.00;1.00;;;-7.20;99.90;;;;;;5071084;28;20725;-76
2021/12/25 15:40:42;;;;;;;0.90;0.90;;;-7.20;99.90;;;;;;5057717;28;20209;-76
2021/12/25 15:43:08;;;;;;;0.90;0.90;;;-7.30;99.90;;;;;;5037621;28;20561;-75
2021/12/25 15:45:34;;;;;;;0.90;0.90;;;-7.40;99.90;;;;;;5071239;28;20220;-76
2021/12/25 15:48:00;;;;;;;1.00;1.00;;;-7.50;99.90;;;;;;5065499;28;20231;-75
2021/12/25 15:50:29;;;;;;;0.87;0.87;;;-7.60;99.90;;;;;;5041742;28;20212;-76
2021/12/25 15:52:56;;;;;;;0.90;0.90;;;-7.50;99.90;;;;;;5053231;28;20235;-75
2021/12/25 15:55:26;;;;;;;1.00;1.00;;;-7.30;99.90;;;;;;5071113;28;20204;-75
2021/12/25 15:57:57;;;;;;;1.83;1.73;;;-7.20;99.90;;;;;;5070182;28;20688;-75
2021/12/25 16:00:23;;;;;;;0.90;0.90;;;-7.20;99.90;;;;;;5069780;28;20570;-75
2021/12/25 16:02:48;;;;;;;0.90;0.90;;;-7.10;99.90;;;;;;5070991;28;20670;-75
2021/12/25 16:05:14;;;;;;;0.90;0.90;;;-7.10;99.90;;;;;;5071330;28;20228;-74
2021/12/25 16:07:40;;;;;;;0.90;0.90;;;-7.30;99.90;;;;;;5052579;28;20675;-75
2021/12/25 16:10:07;;;;;;;0.90;0.90;;;-7.40;99.90;;;;;;5052548;28;20287;-76
2021/12/25 16:12:33;;;;;;;0.90;0.90;;;-7.40;99.90;;;;;;5069896;28;20212;-76
2021/12/25 16:14:58;;;;;;;0.90;0.90;;;-7.20;99.90;;;;;;5053396;28;20655;-75
2021/12/25 16:17:24;;;;;;;0.90;0.90;;;-7.00;99.90;;;;;;5069756;28;20291;-76
2021/12/25 16:19:50;;;;;;;0.90;0.90;;;-6.80;99.90;;;;;;5070997;28;20209;-76
2021/12/25 16:22:18;;;;;;;0.83;0.83;;;-6.70;99.90;;;;;;5053995;28;20300;-75
2021/12/25 16:24:44;;;;;;;0.90;0.90;;;-6.80;99.90;;;;;;5056101;28;20201;-75
2021/12/25 16:27:10;;;;;;;0.90;0.90;;;-6.90;99.90;;;;;;5073811;28;20213;-76
2021/12/25 16:29:36;;;;;;;0.90;0.90;;;-6.90;99.90;;;;;;5056702;28;20213;-75
2021/12/25 16:32:02;;;;;;;0.90;0.90;;;-7.00;99.90;;;;;;5055506;28;20205;-75
2021/12/25 16:34:28;;;;;;;0.90;0.90;;;-7.00;99.90;;;;;;5072005;28;20253;-75
2021/12/25 16:36:53;;;;;;;0.90;0.90;;;-7.10;99.90;;;;;;5074119;28;20233;-75
2021/12/25 16:39:22;;;;;;;0.90;0.90;;;-7.30;99.90;;;;;;5073326;28;20216;-77
2021/12/25 16:41:50;;;;;;;0.90;0.90;;;-7.40;99.90;;;;;;5066740;28;20200;-75
2021/12/25 16:44:18;;;;;;;0.90;0.90;;;-7.50;99.90;;;;;;5055389;28;20251;-74
2021/12/25 16:46:49;;;;;;;0.90;0.90;;;-7.60;99.90;;;;;;5073293;28;20287;-77
2021/12/25 16:49:25;;;;;;;0.90;0.90;;;-7.70;99.90;;;;;;5074303;28;20205;-76
2021/12/25 16:51:55;;;;;;;0.93;0.93;;;-7.70;99.90;;;;;;5057207;28;20345;-75
2021/12/25 16:54:25;;;;;;;1.10;1.10;;;-7.70;99.90;;;;;;5055948;28;20265;-76
2021/12/25 16:56:51;;;;;;;0.97;0.97;;;-7.80;99.90;;;;;;5054962;28;20575;-72
2021/12/25 16:59:25;;;;;;;0.90;0.90;;;-7.80;99.90;;;;;;5073027;28;20205;-75
2021/12/25 17:01:51;;;;;;;0.90;0.90;;;-7.90;99.90;;;;;;5056322;28;20200;-75
2021/12/25 17:04:16;;;;;;;0.93;0.93;;;-7.90;99.90;;;;;;5056667;28;20553;-76
2021/12/25 17:06:42;;;;;;;0.93;0.93;;;-7.90;99.90;;;;;;5074406;28;20547;-74
2021/12/25 17:09:09;;;;;;;0.90;0.90;;;-7.80;99.90;;;;;;5055094;28;20258;-75
2021/12/25 17:11:34;;;;;;;0.90;0.90;;;-7.60;99.90;;;;;;5072692;28;20225;-76
2021/12/25 17:14:01;;;;;;;1.00;1.00;;;-7.50;99.90;;;;;;5072843;28;20225;-76
2021/12/25 17:16:30;;;;;;;1.00;1.00;;;-7.50;99.90;;;;;;5072540;28;20207;-77
2021/12/25 17:18:59;;;;;;;0.90;0.90;;;-7.60;99.90;;;;;;5054793;28;20217;-74
2021/12/25 17:21:26;;;;;;;0.90;0.90;;;-7.60;99.90;;;;;;5054809;28;20205;-76
2021/12/25 17:23:52;;;;;;;1.00;1.00;;;-7.60;99.90;;;;;;5039501;28;20217;-75
2021/12/25 17:26:21;;;;;;;1.00;1.00;;;-7.40;99.90;;;;;;5055404;28;20260;-74
2021/12/25 17:28:46;;;;;;;0.90;0.90;;;-7.40;99.90;;;;;;5072936;28;20683;-75
2021/12/25 17:31:13;;;;;;;1.00;1.00;;;-7.50;99.90;;;;;;5063787;28;20233;-75
2021/12/25 17:33:40;;;;;;;1.00;1.00;;;-7.60;99.90;;;;;;5070744;28;20231;-75
2021/12/25 17:36:06;;;;;;;0.90;0.90;;;-7.70;99.90;;;;;;5038682;28;20593;-75
2021/12/25 17:38:35;;;;;;;0.90;0.90;;;-7.80;99.90;;;;;;5070742;28;20209;-75
2021/12/25 17:41:04;;;;;;;0.90;0.90;;;-7.90;99.90;;;;;;5055187;28;20220;-75
2021/12/25 17:43:32;;;;;;;0.90;0.90;;;-7.90;99.90;;;;;;5073088;28;20201;-76
2021/12/25 17:46:00;;;;;;;0.90;0.90;;;-8.00;99.90;;;;;;5073344;28;20285;-73
2021/12/25 17:48:26;;;;;;;1.00;1.00;;;-8.00;99.90;;;;;;5054017;28;20236;-75
2021/12/25 17:50:55;;;;;;;1.00;1.00;;;-8.00;99.90;;;;;;5073202;28;20283;-73
2021/12/25 17:53:22;;;;;;;0.90;0.90;;;-8.00;99.90;;;;;;5055015;28;20630;-75
2021/12/25 17:55:48;;;;;;;0.90;0.90;;;-7.80;99.90;;;;;;5072927;28;20610;-76
2021/12/25 17:58:14;;;;;;;0.97;0.97;;;-7.70;99.90;;;;;;5071897;28;20200;-75
2021/12/25 18:00:42;;;;;;;1.00;1.00;;;-7.80;99.90;;;;;;5071515;28;20708;-75
2021/12/25 18:03:10;;;;;;;0.90;0.90;;;-8.00;99.90;;;;;;5072055;28;20746;-75
2021/12/25 18:05:41;;;;;;;0.90;0.90;;;-8.00;99.90;;;;;;5055853;28;20205;-75
2021/12/25 18:08:07;;;;;;;0.90;0.90;;;-8.10;99.90;;;;;;5055641;28;20225;-75
2021/12/25 18:10:32;;;;;;;0.93;0.93;;;-8.10;99.90;;;;;;5055546;28;20264;-75
2021/12/25 18:12:58;;;;;;;1.10;1.10;;;-8.20;99.90;;;;;;5071632;28;20209;-75
2021/12/25 18:15:27;;;;;;;1.00;1.00;;;-8.30;99.90;;;;;;5071270;28;20219;-74
2021/12/25 18:17:53;;;;;;;0.97;0.97;;;-8.30;99.90;;;;;;5054400;28;20213;-74
2021/12/25 18:20:23;;;;;;;1.00;1.00;;;-8.40;99.90;;;;;;5051474;28;20235;-74
2021/12/25 18:22:50;;;;;;;1.10;1.10;;;-8.50;99.90;;;;;;5038409;28;20208;-73
2021/12/25 18:25:17;;;;;;;1.00;1.00;;;-8.60;99.90;;;;;;5059760;28;20674;-73
2021/12/25 18:27:45;;;;;;;0.90;0.90;;;-8.70;99.90;;;;;;5054836;28;20774;-74
2021/12/25 18:30:16;;;;;;;0.93;0.93;;;-8.80;99.90;;;;;;5059007;28;20626;-73
2021/12/25 18:32:43;;;;;;;0.90;0.90;;;-8.80;99.90;;;;;;5072280;28;20201;-73
2021/12/25 18:35:09;;;;;;;0.90;0.90;;;-8.60;99.90;;;;;;5061975;28;20201;-75
2021/12/25 18:37:36;;;;;;;0.90;0.90;;;-8.40;99.90;;;;;;5053887;28;20228;-75
2021/12/25 18:40:08;;;;;;;1.00;1.00;;;-8.40;99.90;;;;;;5071003;28;20212;-74
2021/12/25 18:42:34;;;;;;;0.90;0.90;;;-8.40;99.90;;;;;;5070926;28;20226;-75
2021/12/25 18:44:59;;;;;;;1.00;1.00;;;-8.30;99.90;;;;;;5054572;28;20208;-75
2021/12/25 18:47:28;;;;;;;0.90;0.90;;;-8.30;99.90;;;;;;5071405;28;20809;-75
2021/12/25 18:49:56;;;;;;;0.97;0.97;;;-8.10;99.90;;;;;;5072186;28;20193;-75
2021/12/25 18:52:22;;;;;;;0.90;0.90;;;-8.20;99.90;;;;;;5070952;28;20240;-75
2021/12/25 18:54:48;;;;;;;1.00;1.00;;;-8.10;99.90;;;;;;5053170;28;20207;-75
2021/12/25 18:57:14;;;;;;;1.00;1.00;;;-8.20;99.90;;;;;;5070827;28;20213;-74
2021/12/25 18:59:43;;;;;;;1.10;1.10;;;-8.30;99.90;;;;;;5070700;28;20227;-75
2021/12/25 19:02:11;;;;;;;0.97;0.97;;;-8.30;99.90;;;;;;5052396;28;20581;-75
2021/12/25 19:04:38;;;;;;;0.90;0.90;;;-8.30;99.90;;;;;;5054768;28;20248;-75
2021/12/25 19:07:04;;;;;;;1.00;1.00;;;-8.40;99.90;;;;;;5070667;28;20205;-75
2021/12/25 19:09:29;;;;;;;1.00;1.00;;;-8.40;99.90;;;;;;5052570;28;20197;-74
2021/12/25 19:11:55;;;;;;;1.47;1.37;;;-8.50;99.90;;;;;;5053685;28;20197;-75
2021/12/25 19:14:23;;;;;;;0.90;0.90;;;-8.50;99.90;;;;;;5053420;28;20208;-75
2021/12/25 19:16:49;;;;;;;1.00;1.00;;;-8.60;99.90;;;;;;5070490;28;20633;-75
2021/12/25 19:19:17;;;;;;;0.90;0.90;;;-8.70;99.90;;;;;;5070453;28;20212;-75
2021/12/25 19:21:44;;;;;;;0.90;0.90;;;-8.70;99.90;;;;;;5053216;28;20236;-76
2021/12/25 19:24:11;;;;;;;0.90;0.90;;;-8.70;99.90;;;;;;5071443;28;20212;-74
2021/12/25 19:26:37;;;;;;;2.50;2.30;;;-8.60;99.90;;;;;;5070122;28;20292;-75
2021/12/25 19:29:04;;;;;;;0.90;0.90;;;-8.70;99.90;;;;;;5052326;28;20691;-74
2021/12/25 19:31:30;;;;;;;1.00;1.00;;;-8.70;99.90;;;;;;5070223;28;20220;-74
2021/12/25 19:33:58;;;;;;;0.93;0.93;;;-8.60;99.90;;;;;;5070213;28;20205;-73
2021/12/25 19:36:27;;;;;;;0.87;0.87;;;-8.60;99.90;;;;;;5043545;28;20233;-74
2021/12/25 19:38:56;;;;;;;0.90;0.90;;;-8.50;99.90;;;;;;5013249;28;20216;-74
2021/12/25 19:41:22;;;;;;;0.90;0.90;;;-8.40;99.90;;;;;;5030764;28;20206;-72
2021/12/25 19:43:47;;;;;;;0.90;0.90;;;-8.30;99.90;;;;;;5031401;28;20572;-73
2021/12/25 19:46:13;;;;;;;0.90;0.90;;;-8.10;99.90;;;;;;5030430;28;20206;-76
2021/12/25 19:48:39;;;;;;;0.90;0.90;;;-8.10;99.90;;;;;;5028909;28;20206;-73
2021/12/25 19:51:09;;;;;;;1.00;1.00;;;-8.00;99.90;;;;;;5031430;28;20221;-74
2021/12/25 19:53:36;;;;;;;1.00;1.00;;;-7.90;99.90;;;;;;5026988;28;20294;-74
2021/12/25 19:56:02;;;;;;;0.93;0.93;;;-7.90;99.90;;;;;;5031437;28;20657;-74
2021/12/25 19:58:34;;;;;;;1.00;1.00;;;-7.90;99.90;;;;;;5031375;28;20297;-74
2021/12/25 20:01:05;;;;;;;0.90;0.90;;;-7.90;99.90;;;;;;5032768;28;20218;-73
2021/12/25 20:03:33;;;;;;;0.80;0.80;;;-8.00;99.90;;;;;;5034154;28;20675;-73
2021/12/25 20:06:00;;;;;;;0.90;0.90;;;-7.90;99.90;;;;;;5033831;28;20637;-74
2021/12/25 20:08:26;;;;;;;0.90;0.90;;;-7.90;99.90;;;;;;5033950;28;20313;-73
2021/12/25 20:10:52;;;;;;;0.90;0.90;;;-8.00;99.90;;;;;;5032748;28;20653;-73
2021/12/25 20:13:25;;;;;;;0.90;0.90;;;-8.00;99.90;;;;;;5032664;28;20202;-73
2021/12/25 20:15:52;;;;;;;0.90;0.90;;;-8.00;99.90;;;;;;5034097;28;20195;-74
2021/12/25 20:18:18;;;;;;;0.90;0.90;;;-8.00;99.90;;;;;;5032016;28;20575;-74
2021/12/25 20:20:46;;;;;;;0.90;0.90;;;-8.00;99.90;;;;;;5034718;28;20209;-73
2021/12/25 20:23:12;;;;;;;1.00;1.00;;;-8.00;99.90;;;;;;5033750;28;20238;-76
2021/12/25 20:25:38;;;;;;;0.90;0.90;;;-8.00;99.90;;;;;;5033659;28;20226;-74
2021/12/25 20:28:04;;;;;;;1.00;1.00;;;-8.00;99.90;;;;;;5032476;28;20233;-73
2021/12/25 20:30:29;;;;;;;0.97;0.97;;;-8.00;99.90;;;;;;5033335;28;20295;-75
2021/12/25 20:32:55;;;;;;;0.90;0.90;;;-8.00;99.90;;;;;;5033094;28;20568;-74
2021/12/25 20:35:23;;;;;;;0.90;0.90;;;-7.90;99.90;;;;;;5034288;28;20205;-73
2021/12/25 20:37:55;;;;;;;0.90;0.90;;;-7.90;99.90;;;;;;5032523;28;20284;-75
2021/12/25 20:40:28;;;;;;;1.00;1.00;;;-7.90;99.90;;;;;;5016093;28;20225;-75
2021/12/25 20:43:01;;;;;;;1.00;1.00;;;-7.80;99.90;;;;;;5032782;28;20207;-75
2021/12/25 20:45:44;;;;;;;0.90;0.90;;;-7.70;99.90;;;;;;5033274;28;20198;-75
2021/12/25 20:48:14;;;;;;;1.00;1.00;;;-7.50;99.90;;;;;;5033166;28;20210;-74
2021/12/25 20:50:42;;;;;;;0.93;0.93;;;-7.50;99.90;;;;;;5031881;28;20207;-74
2021/12/25 20:53:09;;;;;;;0.90;0.90;;;-7.40;99.90;;;;;;5032399;28;20194;-75
2021/12/25 20:55:36;;;;;;;1.00;1.00;;;-7.40;99.90;;;;;;5032355;28;20202;-74
2021/12/25 20:58:02;;;;;;;0.90;0.90;;;-7.40;99.90;;;;;;5033348;28;20203;-73
2021/12/25 21:00:31;;;;;;;1.00;1.00;;;-7.60;99.90;;;;;;5033168;28;20202;-74
2021/12/25 21:02:57;;;;;;;0.90;0.90;;;-7.70;99.90;;;;;;5033182;28;20210;-74
2021/12/25 21:05:24;;;;;;;0.90;0.90;;;-7.80;99.90;;;;;;5033075;28;20214;-74
2021/12/25 21:07:52;;;;;;;1.67;1.57;;;-7.90;99.90;;;;;;5032838;28;20233;-73
2021/12/25 21:10:19;;;;;;;0.93;0.93;;;-7.90;99.90;;;;;;5031210;28;20549;-74
2021/12/25 21:12:45;;;;;;;0.90;0.90;;;-7.80;99.90;;;;;;5032821;28;20300;-74
2021/12/25 21:15:12;;;;;;;0.90;0.90;;;-7.70;99.90;;;;;;5030678;28;20625;-74
2021/12/25 21:17:42;;;;;;;0.90;0.90;;;-7.60;99.90;;;;;;5032431;28;20206;-74
2021/12/25 21:20:13;;;;;;;0.90;0.90;;;-7.60;99.90;;;;;;5031386;28;20587;-74
2021/12/25 21:22:41;;;;;;;0.90;0.90;;;-7.60;99.90;;;;;;5033701;28;20228;-75
2021/12/25 21:25:10;;;;;;;0.90;0.90;;;-7.60;99.90;;;;;;5033871;28;20238;-75
2021/12/25 21:27:37;;;;;;;1.00;1.00;;;-7.60;99.90;;;;;;5031220;28;20214;-74
2021/12/25 21:30:08;;;;;;;0.90;0.90;;;-7.60;99.90;;;;;;5031978;28;20210;-76
2021/12/25 21:32:34;;;;;;;1.00;1.00;;;-7.70;99.90;;;;;;5032336;28;20198;-76
2021/12/25 21:35:06;;;;;;;0.90;0.90;;;-7.70;99.90;;;;;;5029724;28;20194;-75
2021/12/25 21:37:39;;;;;;;0.90;0.90;;;-7.70;99.90;;;;;;5030859;28;20226;-74
2021/12/25 21:40:08;;;;;;;0.90;0.90;;;-7.70;99.90;;;;;;5031761;28;20271;-74
2021/12/25 21:42:34;;;;;;;1.00;1.00;;;-7.80;99.90;;;;;;5029563;28;20259;-75
2021/12/25 21:45:04;;;;;;;0.97;0.97;;;-7.90;99.90;;;;;;5030897;28;20719;-74
2021/12/25 21:47:30;;;;;;;1.00;1.00;;;-8.00;99.90;;;;;;5030753;28;20573;-74
2021/12/25 21:49:58;;;;;;;0.90;0.90;;;-8.10;99.90;;;;;;5032019;28;20202;-76
2021/12/25 21:52:24;;;;;;;1.00;1.00;;;-8.20;99.90;;;;;;5029648;28;20684;-74
2021/12/25 21:54:50;;;;;;;1.00;1.00;;;-8.30;99.90;;;;;;5031911;28;20202;-74
2021/12/25 21:57:16;;;;;;;1.00;1.00;;;-8.30;99.90;;;;;;5032254;28;20213;-75
2021/12/25 21:59:42;;;;;;;1.00;1.00;;;-8.40;99.90;;;;;;5033067;28;20205;-75
2021/12/25 22:02:08;;;;;;;1.00;1.00;;;-8.50;99.90;;;;;;5033190;28;20206;-76
2021/12/25 22:04:43;;;;;;;1.10;1.10;;;-8.60;99.90;;;;;;5031887;28;20301;-75
2021/12/25 22:07:11;;;;;;;1.00;1.00;;;-8.80;99.90;;;;;;5031872;28;20624;-75
2021/12/25 22:09:38;;;;;;;0.90;0.90;;;-8.90;99.90;;;;;;5029733;28;20217;-75
2021/12/25 22:12:07;;;;;;;1.00;1.00;;;-8.90;99.90;;;;;;5030833;28;20198;-75
2021/12/25 22:14:33;;;;;;;0.90;0.90;;;-8.90;99.90;;;;;;5031490;28;20260;-75
2021/12/25 22:17:01;;;;;;;1.00;1.00;;;-8.90;99.90;;;;;;5030040;28;20213;-73
2021/12/25 22:19:30;;;;;;;0.90;0.90;;;-8.80;99.90;;;;;;5030123;28;20210;-75
2021/12/25 22:21:58;;;;;;;0.83;0.83;;;-8.80;99.90;;;;;;5031927;28;20297;-76
2021/12/25 22:24:26;;;;;;;0.90;0.90;;;-8.70;99.90;;;;;;5031381;28;20202;-76
2021/12/25 22:26:58;;;;;;;0.87;0.87;;;-8.60;99.90;;;;;;5031235;28;20665;-75
2021/12/25 22:29:27;;;;;;;0.90;0.90;;;-8.40;99.90;;;;;;5031051;28;20206;-76
2021/12/25 22:31:53;;;;;;;0.90;0.90;;;-8.20;99.90;;;;;;5031451;28;20206;-76
2021/12/25 22:34:22;;;;;;;0.90;0.90;;;-8.00;99.90;;;;;;5031257;28;20249;-77
2021/12/25 22:36:50;;;;;;;0.90;0.90;;;-8.00;99.90;;;;;;5047301;28;20255;-75
2021/12/25 22:39:18;;;;;;;1.00;1.00;;;-8.10;99.90;;;;;;5071307;28;20205;-75
2021/12/25 22:41:44;;;;;;;0.90;0.90;;;-8.10;99.90;;;;;;5071005;28;20542;-74
2021/12/25 22:44:12;;;;;;;0.90;0.90;;;-8.10;99.90;;;;;;5072300;28;20215;-74
2021/12/25 22:46:41;;;;;;;1.00;1.00;;;-8.20;99.90;;;;;;5070793;28;20268;-74
2021/12/25 22:49:07;;;;;;;0.90;0.90;;;-8.20;99.90;;;;;;5055293;28;20197;-74
2021/12/25 22:51:33;;;;;;;0.90;0.90;;;-8.10;99.90;;;;;;5070819;28;20250;-75
2021/12/25 22:54:01;;;;;;;0.80;0.80;;;-8.10;99.90;;;;;;5048179;28;20235;-74
2021/12/25 22:56:30;;;;;;;0.90;0.90;;;-8.10;99.90;;;;;;5060803;28;20207;-74
2021/12/25 22:58:56;;;;;;;0.90;0.90;;;-8.00;99.90;;;;;;5048410;28;20243;-74
2021/12/25 23:01:25;;;;;;;1.00;1.00;;;-7.90;99.90;;;;;;5059679;28;20197;-74
2021/12/25 23:03:53;;;;;;;1.17;1.17;;;-7.80;99.90;;;;;;5070900;28;20215;-74
2021/12/25 23:06:21;;;;;;;0.90;0.90;;;-7.90;99.90;;;;;;5068674;28;20213;-75
2021/12/25 23:08:57;;;;;;;1.00;1.00;;;-7.80;99.90;;;;;;5043997;28;20288;-75
2021/12/25 23:11:28;;;;;;;1.00;1.00;;;-7.70;99.90;;;;;;5054601;28;20285;-75
2021/12/25 23:13:58;;;;;;;0.90;0.90;;;-7.60;99.90;;;;;;5075540;28;20276;-74
2021/12/25 23:16:28;;;;;;;0.90;0.90;;;-7.70;99.90;;;;;;5082108;28;20199;-75
2021/12/25 23:18:54;;;;;;;1.00;1.00;;;-7.70;99.90;;;;;;5054654;28;20197;-75
2021/12/25 23:21:23;;;;;;;0.90;0.90;;;-7.60;99.90;;;;;;5065546;28;20632;-75
2021/12/25 23:23:49;;;;;;;0.90;0.90;;;-7.40;99.90;;;;;;5071560;28;20193;-75
2021/12/25 23:26:18;;;;;;;0.90;0.90;;;-7.40;99.90;;;;;;5054512;28;20200;-75
2021/12/25 23:28:45;;;;;;;0.90;0.90;;;-7.50;99.90;;;;;;5054598;28;20262;-74
2021/12/25 23:31:11;;;;;;;0.90;0.90;;;-7.50;99.90;;;;;;5054206;28;20698;-74
2021/12/25 23:33:38;;;;;;;0.87;0.87;;;-7.50;99.90;;;;;;5071374;28;20211;-74
2021/12/25 23:36:05;;;;;;;0.90;0.90;;;-7.70;99.90;;;;;;5053328;28;20679;-74
2021/12/25 23:38:36;;;;;;;0.90;0.90;;;-7.80;99.90;;;;;;5070208;28;20228;-75
2021/12/25 23:41:04;;;;;;;0.97;0.97;;;-8.00;99.90;;;;;;5071229;28;20226;-75
2021/12/25 23:43:32;;;;;;;0.80;0.80;;;-8.00;99.90;;;;;;5053625;28;20204;-75
2021/12/25 23:45:59;;;;;;;0.80;0.80;;;-8.00;99.90;;;;;;5071379;28;20216;-75
2021/12/25 23:48:25;;;;;;;0.80;0.80;;;-7.90;99.90;;;;;;5071339;28;20208;-75
2021/12/25 23:50:53;;;;;;;0.90;0.90;;;-7.90;99.90;;;;;;5071373;28;20205;-74
2021/12/25 23:53:19;;;;;;;0.90;0.90;;;-7.80;99.90;;;;;;5070242;28;20253;-74
2021/12/25 23:55:46;;;;;;;1.00;1.00;;;-7.70;99.90;;;;;;5070243;28;20694;-75
2021/12/25 23:58:15;;;;;;;1.00;1.00;;;-7.60;99.90;;;;;;5071568;28;20663;-75
